createdAt,value
2023-05-05T00:13:26.086Z,3.214
2023-05-05T00:29:08.686Z,3.213
2023-05-05T00:44:51.049Z,3.213
2023-05-05T01:00:33.775Z,3.212
2023-05-05T01:16:16.455Z,3.212
2023-05-05T01:31:59.431Z,3.212
2023-05-05T01:47:41.538Z,3.212
2023-05-05T02:03:23.689Z,3.21
2023-05-05T02:19:06.593Z,3.21
2023-05-05T02:34:48.871Z,3.21
2023-05-05T02:50:31.526Z,3.21
2023-05-05T03:06:14.303Z,3.21
2023-05-05T03:21:56.765Z,3.209
2023-05-05T03:37:39.703Z,3.209
2023-05-05T03:53:22.614Z,3.209
2023-05-05T04:24:47.499Z,3.209
2023-05-05T04:40:29.655Z,3.21
2023-05-05T04:56:12.633Z,3.21
2023-05-05T05:11:55.032Z,3.212
2023-05-05T05:27:37.929Z,3.214
2023-05-05T05:59:02.631Z,3.227
2023-05-05T06:30:27.892Z,3.245
2023-05-05T06:46:10.777Z,3.268
2023-05-05T07:02:00.766Z,3.306
2023-05-05T07:17:36.649Z,3.285
2023-05-05T07:33:26.459Z,3.274
2023-05-05T07:49:01.662Z,3.265
2023-05-05T08:36:08.814Z,3.252
2023-05-05T09:07:34.336Z,3.391
2023-05-05T09:23:16.974Z,3.372
2023-05-05T10:10:24.719Z,3.335
2023-05-05T10:26:14.409Z,3.312
2023-05-05T10:41:50.105Z,3.303
2023-05-05T10:57:32.449Z,3.296
2023-05-05T11:13:22.092Z,3.289
2023-05-05T11:28:57.016Z,3.282
2023-05-05T11:44:39.026Z,3.276
2023-05-05T12:31:46.241Z,3.263
2023-05-05T12:47:28.623Z,3.259
2023-05-05T13:03:11.408Z,3.254
2023-05-05T13:19:01.141Z,3.451
2023-05-05T13:19:48.342Z,3.424
2023-05-05T14:06:55.923Z,3.379
2023-05-05T14:22:45.675Z,3.366
2023-05-05T15:09:46.326Z,3.332
2023-05-05T15:25:28.923Z,3.308
2023-05-05T15:41:11.600Z,3.3
2023-05-05T15:57:01.454Z,3.293
2023-05-05T16:12:36.667Z,3.285
2023-05-05T16:28:33.302Z,3.278
2023-05-05T16:44:08.738Z,3.272
2023-05-05T16:59:43.935Z,3.267
2023-05-05T17:15:33.109Z,3.261
2023-05-05T17:31:08.871Z,3.256
2023-05-05T17:46:50.987Z,3.252
2023-05-05T18:02:32.920Z,3.249
2023-05-05T18:34:05.701Z,3.242
2023-05-05T18:49:40.807Z,3.239
2023-05-05T19:05:23.829Z,3.236
2023-05-05T19:37:03.199Z,3.232
2023-05-05T19:52:38.855Z,3.231
2023-05-05T20:08:14.299Z,3.228
2023-05-05T20:24:03.696Z,3.22
2023-05-05T20:39:46.090Z,3.225
2023-05-05T20:55:28.265Z,3.218
2023-05-05T21:11:03.518Z,3.217
2023-05-05T21:27:00.565Z,3.216
2023-05-05T21:42:36.184Z,3.214
2023-05-05T22:13:53.843Z,3.213
2023-05-05T22:29:50.531Z,3.213
2023-05-05T22:45:19.178Z,3.213
2023-05-05T23:01:01.750Z,3.212
2023-05-05T23:16:44.511Z,3.212
2023-05-05T23:32:27.252Z,3.214
2023-05-05T23:48:09.758Z,3.213
